KIIY

Washington-Wilkes County Airport

Washington, Georgia, USA
METAR KIIY 170755Z AUTO 24003KT 10SM CLR 00/M02 A3027 RMK AO2 TSNO
Observed Flight Rules
Dec-17 @ 07:55 UTC (23 minutes ago) Visual Flight Rules
Wind Visibility Clouds
240° at 3 knots 10 miles
  • Clear skies
Temperatures Readings
Current 0°C / 32°F
Dewpoint -2°C / 28°F
Humidity 87%
Altimeter 30.27" Hg
Pressure 1025 hPa
Elevation 197
METAR KIIY 170755Z AUTO 24003KT 10SM CLR 00/M02 A3027 RMK AO2 TSNO
Observed Flight Rules
Dec-17 @ 07:55 UTC
(23 minutes ago)
VFR
Wind Visibility
240° at 3 knots 10 miles
Clouds
  • Clear skies
Temperature Dewpoint
0°C / 32°F -2°C / 28°F
Humidity Altimeter Pressure
87% 30.27" Hg 1025 hPa